Time;durP1;ratioP1;P1;durP2;ratioP2;P2;SDS_P1;SDS_P2;PMS_P1;PMS_P2;Temp;Humidity;BMP_temperature;BMP_pressure;BME280_temperature;BME280_humidity;BME280_pressure;Samples;Min_cycle;Max_cycle;Signal;HPM_P1;HPM_P2
2022/01/15 00:00:34;;;;;;;23.48;14.95;;;;;;;3.30;88.47;102369.69;5022617;28;20050;-24
2022/01/15 00:03:00;;;;;;;21.00;14.10;;;;;;;3.29;88.25;102373.09;5022752;28;20492;-24
2022/01/15 00:05:26;;;;;;;21.98;14.90;;;;;;;3.28;88.35;102367.00;5021345;28;20037;-25
2022/01/15 00:07:52;;;;;;;20.45;14.23;;;;;;;3.27;88.34;102375.63;5023641;28;20553;-23
2022/01/15 00:10:20;;;;;;;21.00;14.48;;;;;;;3.27;88.04;102375.63;5022880;28;20029;-21
2022/01/15 00:12:46;;;;;;;20.58;14.43;;;;;;;3.27;88.20;102372.16;5022387;28;20585;-24
2022/01/15 00:15:20;;;;;;;21.77;14.88;;;;;;;3.25;87.98;102363.34;5027454;28;20064;-25
2022/01/15 00:17:51;;;;;;;20.48;14.13;;;;;;;3.24;87.87;102372.00;5021572;28;20026;-24
2022/01/15 00:20:19;;;;;;;19.73;13.70;;;;;;;3.24;87.83;102377.22;5024126;28;20112;-24
2022/01/15 00:22:46;;;;;;;20.70;14.52;;;;;;;3.23;87.59;102367.63;5023611;28;20100;-24
2022/01/15 00:25:12;;;;;;;18.92;13.80;;;;;;;3.18;87.93;102360.47;5020752;28;20038;-24
2022/01/15 00:27:39;;;;;;;20.27;14.02;;;;;;;3.20;87.72;102370.94;5020582;28;20497;-24
2022/01/15 00:30:06;;;;;;;19.00;13.05;;;;;;;3.19;88.01;102366.53;5020666;28;20056;-23
2022/01/15 00:32:31;;;;;;;22.13;13.75;;;;;;;3.17;87.54;102363.88;5022133;28;20079;-24
2022/01/15 00:34:57;;;;;;;19.08;13.65;;;;;;;3.18;87.75;102362.16;5022223;28;20436;-22
2022/01/15 00:37:23;;;;;;;19.10;13.68;;;;;;;3.16;87.48;102359.47;5023595;28;20547;-24
2022/01/15 00:39:48;;;;;;;18.75;13.55;;;;;;;3.15;88.05;102359.41;5024078;28;20022;-23
2022/01/15 00:42:14;;;;;;;21.30;14.43;;;;;;;3.13;87.94;102361.94;5018378;28;20525;-23
2022/01/15 00:44:41;;;;;;;23.02;14.07;;;;;;;3.11;87.59;102363.59;5023020;28;20496;-24
2022/01/15 00:47:07;;;;;;;21.63;14.35;;;;;;;3.11;87.75;102368.81;5023153;28;20120;-24
2022/01/15 00:49:33;;;;;;;17.55;13.20;;;;;;;3.11;87.64;102360.97;5021758;28;20189;-23
2022/01/15 00:51:58;;;;;;;20.63;13.40;;;;;;;3.10;87.57;102358.28;5025348;28;20039;-24
2022/01/15 00:54:24;;;;;;;21.20;13.27;;;;;;;3.08;87.79;102363.44;5024318;28;20466;-23
2022/01/15 00:56:49;;;;;;;19.83;13.57;;;;;;;3.07;87.65;102361.66;5021002;28;20497;-25
2022/01/15 00:59:18;;;;;;;17.58;12.73;;;;;;;3.06;87.30;102365.06;5022190;28;20021;-24
2022/01/15 01:01:44;;;;;;;19.08;13.45;;;;;;;3.04;87.36;102366.69;5019972;28;20048;-24
2022/01/15 01:04:10;;;;;;;19.17;13.52;;;;;;;3.03;87.65;102354.50;5022290;28;20029;-24
2022/01/15 01:06:35;;;;;;;20.17;13.52;;;;;;;3.02;87.41;102355.28;5021263;28;20091;-24
2022/01/15 01:09:01;;;;;;;19.55;13.60;;;;;;;3.01;87.50;102350.91;5022230;28;20034;-24
2022/01/15 01:11:41;;;;;;;19.63;13.20;;;;;;;3.00;87.37;102354.34;5023338;28;20030;-24
2022/01/15 01:24:37;;;;;;;19.58;13.45;;;;;;;2.92;87.44;102357.47;5023186;28;20048;-24
2022/01/15 01:27:10;;;;;;;17.42;13.20;;;;;;;2.91;87.23;102363.50;5020788;28;20033;-24
2022/01/15 01:30:04;;;;;;;16.92;12.55;;;;;;;2.87;87.27;102356.31;5023105;28;20034;-24
2022/01/15 01:34:56;;;;;;;17.33;11.88;;;;;;;2.86;86.97;102361.47;5020693;28;20522;-22
2022/01/15 01:37:36;;;;;;;17.08;11.65;;;;;;;2.83;87.27;102354.38;5022758;28;20025;-24
2022/01/15 01:40:23;;;;;;;16.73;12.37;;;;;;;2.82;87.12;102357.81;5022918;28;20492;-24
2022/01/15 01:43:02;;;;;;;16.80;12.25;;;;;;;2.79;86.96;102350.72;5018623;28;20330;-24
2022/01/15 01:45:28;;;;;;;17.23;12.68;;;;;;;2.77;87.26;102356.69;5021899;28;20075;-24
2022/01/15 01:47:54;;;;;;;17.00;12.30;;;;;;;2.74;87.27;102347.00;5025316;28;20057;-24
2022/01/15 01:50:26;;;;;;;15.23;11.32;;;;;;;2.74;87.09;102354.84;5020780;28;20022;-24
2022/01/15 01:52:56;;;;;;;16.23;11.30;;;;;;;2.73;87.12;102362.56;5027718;28;20079;-25
2022/01/15 01:55:23;;;;;;;16.20;12.45;;;;;;;2.71;87.16;102358.97;5023527;28;20037;-24
2022/01/15 01:57:51;;;;;;;20.00;12.60;;;;;;;2.68;87.06;102355.41;5025928;28;20029;-25
2022/01/15 02:00:18;;;;;;;17.15;12.07;;;;;;;2.66;86.83;102348.31;5027140;28;20443;-24
2022/01/15 02:02:44;;;;;;;17.98;12.27;;;;;;;2.65;87.09;102351.75;5023633;28;20029;-24
2022/01/15 02:05:11;;;;;;;17.23;11.88;;;;;;;2.63;86.94;102349.06;5023153;28;20022;-23
2022/01/15 02:07:38;;;;;;;17.48;12.18;;;;;;;2.60;87.24;102343.69;5025885;28;20080;-24
2022/01/15 02:10:07;;;;;;;18.23;12.55;;;;;;;2.58;87.00;102350.53;5023323;28;20025;-24
2022/01/15 02:12:33;;;;;;;17.25;12.57;;;;;;;2.56;86.92;102346.94;5026567;28;21359;-24
2022/01/15 02:15:06;;;;;;;16.38;11.60;;;;;;;2.55;86.94;102347.78;5025291;28;20515;-24
2022/01/15 02:17:32;;;;;;;17.80;12.70;;;;;;;2.51;86.93;102340.63;5023243;28;20028;-24
2022/01/15 02:20:59;;;;;;;19.83;12.85;;;;;;;2.47;86.86;102330.88;5021893;28;20025;-25
2022/01/15 02:23:33;;;;;;;17.60;11.88;;;;;;;2.46;86.67;102323.88;5020102;28;20044;-24
2022/01/15 02:26:04;;;;;;;16.65;11.75;;;;;;;2.42;86.67;102333.22;5025400;28;20071;-24
2022/01/15 02:28:35;;;;;;;19.00;12.88;;;;;;;2.40;87.20;102329.66;5027064;28;20052;-24
2022/01/15 02:31:05;;;;;;;;;;;;;;;2.37;86.83;102330.38;5025103;28;20128;-24
2022/01/15 02:33:31;;;;;;;18.55;12.32;;;;;;;2.34;86.68;102332.84;5027069;28;19921;-24
2022/01/15 02:35:58;;;;;;;15.55;11.60;;;;;;;2.32;86.78;102342.28;5024896;28;20041;-25
2022/01/15 02:38:24;;;;;;;17.00;11.90;;;;;;;2.30;86.68;102333.47;5024008;28;20025;-24
2022/01/15 02:40:51;;;;;;;19.50;12.40;;;;;;;2.25;86.42;102321.94;5022115;28;20123;-24
2022/01/15 02:43:20;;;;;;;16.63;11.95;;;;;;;2.24;86.69;102327.97;5022398;28;20076;-24
2022/01/15 02:45:56;;;;;;;18.45;12.15;;;;;;;2.21;86.43;102322.59;5024351;28;20378;-25
2022/01/15 02:48:24;;;;;;;17.08;12.13;;;;;;;2.18;86.47;102323.34;5023685;28;20021;-24
2022/01/15 02:50:50;;;;;;;17.65;12.25;;;;;;;2.14;86.53;102322.25;5024810;28;20025;-24
2022/01/15 02:53:16;;;;;;;16.90;11.85;;;;;;;2.11;86.27;102316.94;5026284;28;20025;-24
2022/01/15 02:55:46;;;;;;;18.00;11.85;;;;;;;2.08;86.43;102315.84;5024095;28;20030;-24
2022/01/15 02:58:12;;;;;;;15.80;11.82;;;;;;;2.05;86.36;102327.00;5023031;28;20026;-24
2022/01/15 03:00:38;;;;;;;17.83;11.98;;;;;;;2.03;86.39;102323.41;5021691;28;20030;-24
2022/01/15 03:03:04;;;;;;;16.10;12.27;;;;;;;1.98;86.00;102317.97;5024171;28;20025;-24
2022/01/15 03:05:30;;;;;;;16.65;12.48;;;;;;;1.96;86.13;102313.50;5025163;28;20395;-24
2022/01/15 03:07:55;;;;;;;17.25;12.45;;;;;;;1.94;86.29;102309.94;5023182;28;20498;-23
2022/01/15 03:10:21;;;;;;;16.10;11.68;;;;;;;1.90;86.37;102307.16;5022322;28;20049;-24
2022/01/15 03:12:47;;;;;;;13.98;10.90;;;;;;;1.86;86.18;102305.19;5019416;28;20531;-24
2022/01/15 03:15:19;;;;;;;18.90;13.02;;;;;;;1.84;86.18;102305.94;5022467;28;20068;-23
2022/01/15 03:17:48;;;;;;;16.98;12.27;;;;;;;1.81;86.24;102311.88;5023609;28;20479;-23
2022/01/15 03:20:16;;;;;;;16.30;11.23;;;;;;;1.77;85.88;102312.53;5026410;28;20028;-24
2022/01/15 03:22:41;;;;;;;16.42;11.85;;;;;;;1.73;86.04;102307.97;5022156;28;20087;-24
2022/01/15 03:25:08;;;;;;;18.40;11.55;;;;;;;1.70;85.72;102307.81;5025014;28;20033;-24
2022/01/15 03:27:34;;;;;;;18.63;13.25;;;;;;;1.67;86.08;102309.41;5023097;28;20061;-24
2022/01/15 03:30:00;;;;;;;17.80;11.52;;;;;;;1.64;85.77;102306.66;5023779;28;20084;-24
2022/01/15 03:32:26;;;;;;;14.82;12.07;;;;;;;1.60;85.94;102291.69;5023410;28;20465;-25
2022/01/15 03:34:51;;;;;;;17.95;12.38;;;;;;;1.58;85.93;102301.13;5022426;28;20485;-24
2022/01/15 03:37:18;;;;;;;17.48;12.40;;;;;;;1.55;85.83;102300.97;5021321;28;20039;-24
2022/01/15 03:39:44;;;;;;;17.85;11.52;;;;;;;1.51;85.85;102293.81;5021800;28;20029;-24
2022/01/15 03:42:13;;;;;;;15.85;11.77;;;;;;;1.48;85.98;102291.94;5022338;28;20029;-24
2022/01/15 03:44:47;;;;;;;18.10;11.68;;;;;;;1.45;85.81;102298.66;5020258;28;20472;-24
2022/01/15 03:47:13;;;;;;;21.05;13.10;;;;;;;1.40;85.82;102291.50;5021828;28;20026;-24
2022/01/15 03:49:40;;;;;;;20.10;12.68;;;;;;;1.37;85.62;102286.13;5023606;28;20033;-23
2022/01/15 03:52:06;;;;;;;19.67;13.15;;;;;;;1.34;85.60;102283.38;5024504;28;20022;-23
2022/01/15 03:54:33;;;;;;;20.95;13.85;;;;;;;1.30;85.95;102278.78;5023434;28;20049;-24
2022/01/15 03:56:59;;;;;;;23.42;13.55;;;;;;;1.27;85.58;102279.53;5021419;28;20033;-23
2022/01/15 03:59:25;;;;;;;18.52;12.75;;;;;;;1.25;85.52;102293.25;5017021;28;20373;-24
2022/01/15 04:01:50;;;;;;;22.40;15.40;;;;;;;1.21;85.59;102291.31;5024187;28;20477;-24
2022/01/15 04:04:17;;;;;;;22.55;14.15;;;;;;;1.17;85.86;102284.16;5024471;28;20040;-24
2022/01/15 04:06:42;;;;;;;21.35;13.93;;;;;;;1.14;85.68;102285.75;5023788;28;20401;-24
2022/01/15 04:09:09;;;;;;;20.90;13.23;;;;;;;1.12;85.74;102277.00;5023618;28;20025;-24
2022/01/15 04:11:34;;;;;;;20.92;14.10;;;;;;;1.08;85.98;102280.22;5021938;28;20044;-24
2022/01/15 04:14:01;;;;;;;20.58;14.13;;;;;;;1.06;85.83;102278.34;5021447;28;20033;-24
2022/01/15 04:16:28;;;;;;;23.48;14.70;;;;;;;1.02;85.80;102274.69;5022350;28;20029;-23
2022/01/15 04:18:58;;;;;;;21.67;13.05;;;;;;;0.99;86.03;102280.59;5024432;28;20112;-24
2022/01/15 04:21:24;;;;;;;20.63;13.80;;;;;;;0.97;85.93;102287.41;5024766;28;20021;-24
2022/01/15 04:23:49;;;;;;;20.55;13.93;;;;;;;0.95;86.22;102282.94;5021347;28;20492;-24
2022/01/15 04:26:15;;;;;;;21.60;13.40;;;;;;;0.92;86.12;102278.47;5023134;28;20033;-24
2022/01/15 04:28:41;;;;;;;22.20;14.00;;;;;;;0.89;85.96;102283.47;5024147;28;20052;-24
2022/01/15 04:31:08;;;;;;;21.95;14.35;;;;;;;0.86;85.83;102273.81;5022253;28;20026;-24
2022/01/15 04:33:35;;;;;;;22.83;15.18;;;;;;;0.84;86.27;102270.22;5022286;28;20485;-24
2022/01/15 04:36:03;;;;;;;20.92;13.55;;;;;;;0.82;86.23;102270.94;5021196;28;20091;-24
2022/01/15 04:38:30;;;;;;;20.70;13.88;;;;;;;0.80;86.17;102272.56;5022524;28;20026;-24
2022/01/15 04:40:57;;;;;;;22.70;14.77;;;;;;;0.77;86.14;102275.91;5022080;28;20737;-24
2022/01/15 04:43:23;;;;;;;21.17;14.57;;;;;;;0.75;86.32;102269.72;5019281;28;20025;-24
2022/01/15 04:45:48;;;;;;;20.60;12.55;;;;;;;0.73;86.24;102271.34;5020761;28;20102;-25
2022/01/15 04:48:14;;;;;;;17.83;12.82;;;;;;;0.70;86.20;102268.56;5025350;28;20087;-24
2022/01/15 04:50:39;;;;;;;21.00;13.85;;;;;;;0.69;86.46;102269.34;5024182;28;20076;-22
2022/01/15 04:53:05;;;;;;;24.50;13.77;;;;;;;0.67;86.08;102263.19;5022580;28;20029;-24
2022/01/15 04:55:31;;;;;;;20.20;13.32;;;;;;;0.64;86.53;102262.19;5022223;28;20025;-24
2022/01/15 04:57:57;;;;;;;23.38;14.32;;;;;;;0.63;85.94;102259.50;5022504;28;20896;-24
2022/01/15 05:00:23;;;;;;;20.40;13.50;;;;;;;0.61;86.41;102261.13;5023473;28;20490;-24
2022/01/15 05:02:48;;;;;;;23.17;13.13;;;;;;;0.60;86.04;102257.63;5024196;28;20095;-22
2022/01/15 05:05:14;;;;;;;19.58;12.98;;;;;;;0.59;86.23;102247.16;5026240;28;20026;-26
2022/01/15 05:07:41;;;;;;;23.02;13.82;;;;;;;0.57;86.23;102254.84;5036961;28;20472;-22
2022/01/15 05:10:08;;;;;;;24.52;14.55;;;;;;;0.55;86.12;102253.88;5021894;28;20030;-23
2022/01/15 05:12:43;;;;;;;19.67;13.43;;;;;;;0.53;86.22;102247.69;5021016;28;20027;-22
2022/01/15 05:15:09;;;;;;;20.88;12.70;;;;;;;0.52;86.05;102251.09;5018888;28;20036;-27
2022/01/15 05:17:35;;;;;;;21.55;13.50;;;;;;;0.52;86.21;102251.09;5021744;28;20477;-22
2022/01/15 05:20:01;;;;;;;20.23;13.38;;;;;;;0.48;86.62;102250.03;5019346;28;20082;-22
2022/01/15 05:22:27;;;;;;;19.90;12.82;;;;;;;0.48;86.60;102257.84;5023064;28;20493;-24
2022/01/15 05:24:52;;;;;;;22.92;14.10;;;;;;;0.46;86.51;102255.91;5022398;28;20072;-21
2022/01/15 05:27:18;;;;;;;22.50;13.77;;;;;;;0.45;86.44;102256.75;5023881;28;20040;-22
2022/01/15 05:29:45;;;;;;;21.40;13.63;;;;;;;0.43;86.34;102250.59;5025035;28;20029;-22
2022/01/15 05:32:10;;;;;;;18.65;12.25;;;;;;;0.42;86.45;102249.69;5021833;28;20125;-22
2022/01/15 05:34:36;;;;;;;20.92;13.77;;;;;;;0.41;86.12;102249.59;5023577;28;20431;-22
2022/01/15 05:37:02;;;;;;;20.50;13.05;;;;;;;0.39;86.19;102249.50;5026167;28;20029;-22
2022/01/15 05:39:28;;;;;;;19.83;12.25;;;;;;;0.36;86.03;102260.59;5022902;28;20117;-22
2022/01/15 05:41:53;;;;;;;19.65;12.57;;;;;;;0.35;86.10;102269.19;5025416;28;20045;-22
2022/01/15 05:44:19;;;;;;;18.20;12.63;;;;;;;0.34;86.37;102275.16;5024778;28;20151;-21
2022/01/15 05:46:45;;;;;;;21.50;12.65;;;;;;;0.31;86.22;102267.22;5022742;28;20029;-21
2022/01/15 05:49:11;;;;;;;19.42;12.55;;;;;;;0.30;86.18;102270.59;5022160;28;20033;-22
2022/01/15 05:51:37;;;;;;;19.08;12.60;;;;;;;0.29;86.37;102268.81;5024291;28;20476;-22
2022/01/15 05:54:10;;;;;;;20.65;12.88;;;;;;;0.28;86.02;102268.72;5024081;28;20033;-22
2022/01/15 05:56:36;;;;;;;22.60;13.98;;;;;;;0.26;86.01;102266.03;5022131;28;20083;-22
2022/01/15 05:59:02;;;;;;;19.25;12.70;;;;;;;0.24;86.43;102272.84;5026833;28;20481;-22
2022/01/15 06:01:28;;;;;;;21.33;14.82;;;;;;;0.22;86.19;102270.16;5026536;28;20035;-22
2022/01/15 06:03:53;;;;;;;18.98;12.75;;;;;;;0.19;86.06;102263.88;5026172;28;20057;-26
2022/01/15 06:06:19;;;;;;;20.05;13.38;;;;;;;0.19;86.42;102271.66;5024922;28;20547;-21
2022/01/15 06:08:45;;;;;;;19.38;12.60;;;;;;;0.17;86.33;102268.97;5023318;28;20535;-22
2022/01/15 06:11:11;;;;;;;19.25;12.20;;;;;;;0.17;85.99;102274.16;5023161;28;20028;-22
2022/01/15 06:13:37;;;;;;;23.73;13.68;;;;;;;0.16;85.98;102281.91;5023558;28;20037;-25
2022/01/15 06:16:04;;;;;;;17.98;11.65;;;;;;;0.14;86.18;102279.22;5023889;28;20025;-21
2022/01/15 06:18:29;;;;;;;18.77;12.18;;;;;;;0.13;86.03;102279.97;5021375;28;20032;-22
2022/01/15 06:20:55;;;;;;;22.50;13.95;;;;;;;0.12;86.23;102284.31;5021789;28;20029;-22
2022/01/15 06:23:21;;;;;;;20.80;12.85;;;;;;;0.10;86.29;102278.09;5022878;28;20033;-24
2022/01/15 06:25:46;;;;;;;23.27;13.52;;;;;;;0.10;86.04;102278.09;5024584;28;20021;-22
2022/01/15 06:28:12;;;;;;;20.33;13.10;;;;;;;0.09;86.16;102273.72;5020476;28;20045;-27
2022/01/15 06:30:38;;;;;;;17.98;12.68;;;;;;;0.09;86.49;102278.00;5023303;28;20040;-23
2022/01/15 06:33:04;;;;;;;20.35;14.30;;;;;;;0.07;86.52;102280.50;5005325;28;20034;-23
2022/01/15 06:35:30;;;;;;;21.50;13.75;;;;;;;0.05;86.62;102279.53;5024264;28;20025;-21
2022/01/15 06:37:56;;;;;;;19.38;12.20;;;;;;;0.06;86.46;102276.13;5022881;28;20033;-22
2022/01/15 06:40:22;;;;;;;19.30;13.20;;;;;;;0.05;86.57;102279.53;5021998;28;20572;-22
2022/01/15 06:42:50;;;;;;;19.50;13.50;;;;;;;0.04;86.11;102280.34;5020617;28;20128;-21
2022/01/15 06:45:19;;;;;;;18.85;12.50;;;;;;;0.02;86.68;102281.94;4991107;28;20033;-22
2022/01/15 06:47:45;;;;;;;21.00;13.73;;;;;;;0.03;86.08;102283.72;5018524;28;20092;-23
2022/01/15 06:50:10;;;;;;;22.33;15.90;;;;;;;0.01;86.30;102290.53;5022113;28;20026;-21
2022/01/15 06:52:37;;;;;;;21.73;13.32;;;;;;;0.02;86.55;102294.00;5024578;28;20147;-25
2022/01/15 06:55:07;;;;;;;19.60;14.05;;;;;;;0.01;86.78;102282.75;5023748;28;20033;-22
2022/01/15 06:57:33;;;;;;;21.50;13.63;;;;;;;0.01;86.18;102290.53;5021513;28;20033;-23
2022/01/15 06:59:59;;;;;;;21.70;13.75;;;;;;;0.00;86.58;102286.16;5023434;28;20063;-22
2022/01/15 07:02:25;;;;;;;20.80;12.80;;;;;;;-0.01;86.65;102289.53;5021415;28;20104;-22
2022/01/15 07:04:50;;;;;;;19.50;13.15;;;;;;;0.00;86.50;102293.94;5020521;28;20262;-21
2022/01/15 07:07:16;;;;;;;21.00;13.48;;;;;;;-0.02;87.11;102298.13;5019838;28;20152;-22
2022/01/15 07:09:41;;;;;;;16.45;13.15;;;;;;;0.01;86.50;102297.41;5025066;28;20108;-23
2022/01/15 07:12:07;;;;;;;19.55;13.48;;;;;;;-0.01;86.89;102305.09;5026557;28;20032;-21
2022/01/15 07:14:33;;;;;;;19.25;12.85;;;;;;;-0.01;86.35;102299.91;5023849;28;20487;-24
2022/01/15 07:16:59;;;;;;;18.92;13.60;;;;;;;0.00;86.35;102301.72;5022529;28;20117;-22
2022/01/15 07:19:25;;;;;;;21.50;13.55;;;;;;;-0.01;86.82;102294.72;5020231;28;20018;-23
2022/01/15 07:21:50;;;;;;;22.27;13.70;;;;;;;-0.01;86.93;102293.03;5018830;28;20037;-21
2022/01/15 07:24:19;;;;;;;18.33;13.25;;;;;;;0.01;86.60;102303.50;5020966;28;20035;-21
2022/01/15 07:26:44;;;;;;;17.90;13.07;;;;;;;0.01;86.95;102298.31;5022269;28;20361;-23
2022/01/15 07:29:15;;;;;;;19.67;13.73;;;;;;;0.02;86.83;102291.41;5018972;28;20033;-23
2022/01/15 07:31:42;;;;;;;17.95;12.55;;;;;;;0.02;87.19;102310.47;5016631;28;20029;-23
2022/01/15 07:34:07;;;;;;;20.17;12.60;;;;;;;0.03;86.92;102293.22;5020003;28;20033;-23
2022/01/15 07:36:33;;;;;;;19.23;12.63;;;;;;;0.02;86.72;102300.09;5022442;28;20393;-23
2022/01/15 07:38:58;;;;;;;19.63;13.85;;;;;;;0.04;86.42;102305.38;5022375;28;20021;-23
2022/01/15 07:41:24;;;;;;;17.33;13.07;;;;;;;0.04;86.38;102308.91;5022936;28;20033;-23
2022/01/15 07:43:50;;;;;;;18.65;11.70;;;;;;;0.04;86.38;102301.13;5022673;28;20045;-23
2022/01/15 07:46:15;;;;;;;18.42;11.88;;;;;;;0.06;86.91;102301.16;5023352;28;20053;-23
2022/01/15 07:48:41;;;;;;;17.80;12.70;;;;;;;0.06;86.76;102296.88;5022315;28;20029;-23
2022/01/15 07:51:07;;;;;;;17.95;12.82;;;;;;;0.07;86.54;102303.88;5023517;28;20076;-23
2022/01/15 07:53:33;;;;;;;18.45;12.75;;;;;;;0.08;86.90;102292.72;5023857;28;20116;-23
2022/01/15 07:55:58;;;;;;;19.30;13.18;;;;;;;0.08;86.68;102292.72;5022828;28;20039;-23
2022/01/15 07:58:24;;;;;;;21.63;13.18;;;;;;;0.08;86.82;102295.31;5022421;28;20025;-23
2022/01/15 08:00:50;;;;;;;16.98;11.93;;;;;;;0.08;87.02;102305.69;5026114;28;20388;-23
2022/01/15 08:03:15;;;;;;;21.13;13.20;;;;;;;0.11;86.96;102311.03;5023372;28;20025;-23
2022/01/15 08:05:41;;;;;;;18.67;13.13;;;;;;;0.12;86.98;102307.66;5018883;28;20235;-23
2022/01/15 08:08:06;;;;;;;17.50;12.70;;;;;;;0.13;86.55;102313.72;5027112;28;20033;-23
2022/01/15 08:10:32;;;;;;;19.05;13.35;;;;;;;0.15;86.58;102311.22;5025956;28;20088;-23
2022/01/15 08:12:58;;;;;;;19.73;13.15;;;;;;;0.14;86.97;102304.25;5024965;28;20029;-23
2022/01/15 08:15:25;;;;;;;18.52;13.00;;;;;;;0.16;86.99;102302.66;5023542;28;20048;-23
2022/01/15 08:17:51;;;;;;;18.80;12.45;;;;;;;0.16;86.97;102297.47;5027072;28;20029;-23
2022/01/15 08:20:16;;;;;;;28.08;13.07;;;;;;;0.17;87.04;102294.94;5024818;28;20505;-23
2022/01/15 08:22:45;;;;;;;19.48;13.00;;;;;;;0.19;86.96;102300.22;5020351;28;20057;-23
2022/01/15 08:25:13;;;;;;;19.73;13.15;;;;;;;0.20;86.51;102307.22;5018287;28;20095;-23
2022/01/15 08:27:39;;;;;;;18.50;13.45;;;;;;;0.21;86.85;102306.41;5020678;28;20096;-23
2022/01/15 08:30:06;;;;;;;17.73;12.77;;;;;;;0.22;87.05;102303.91;5013254;28;20537;-23
2022/01/15 08:32:34;;;;;;;20.85;14.48;;;;;;;0.22;86.62;102303.91;5018312;28;20562;-23
2022/01/15 08:35:03;;;;;;;19.67;13.32;;;;;;;0.26;86.54;102304.97;5021903;28;20029;-23
2022/01/15 08:37:29;;;;;;;18.50;13.20;;;;;;;0.27;86.96;102317.16;5018019;28;20017;-23
2022/01/15 08:39:55;;;;;;;21.83;13.60;;;;;;;0.28;86.44;102313.75;5006995;28;20456;-23
2022/01/15 08:42:21;;;;;;;21.27;14.07;;;;;;;0.30;86.70;102311.25;5025110;28;20034;-23
2022/01/15 08:44:48;;;;;;;20.00;13.40;;;;;;;0.30;86.62;102314.72;5025029;28;20186;-24
2022/01/15 08:47:15;;;;;;;19.77;13.10;;;;;;;0.31;86.59;102308.75;5021079;28;20123;-25
2022/01/15 08:49:42;;;;;;;19.00;13.60;;;;;;;0.32;86.98;102315.72;5022728;28;20032;-24
2022/01/15 08:52:08;;;;;;;20.67;13.55;;;;;;;0.33;87.03;102312.31;5020882;28;20244;-24
2022/01/15 08:54:35;;;;;;;20.98;13.60;;;;;;;0.35;86.50;102312.41;5020297;28;20029;-24
2022/01/15 08:57:01;;;;;;;23.05;14.40;;;;;;;0.37;87.08;102314.28;5019535;28;20106;-24
2022/01/15 08:59:27;;;;;;;20.80;14.75;;;;;;;0.37;86.88;102311.69;5024098;28;20053;-24
2022/01/15 09:01:57;;;;;;;24.15;15.02;;;;;;;0.40;87.23;102315.31;5024450;28;20025;-24
2022/01/15 09:04:22;;;;;;;21.52;15.00;;;;;;;0.40;86.97;102308.38;5022955;28;20053;-23
2022/01/15 09:06:48;;;;;;;21.85;15.52;;;;;;;0.43;87.00;102318.09;5029148;28;20037;-24
2022/01/15 09:09:14;;;;;;;21.38;13.90;;;;;;;0.44;87.25;102310.38;5025952;28;20048;-24
2022/01/15 09:11:39;;;;;;;22.50;15.43;;;;;;;0.45;86.94;102309.56;5026875;28;20021;-24
2022/01/15 09:14:05;;;;;;;21.55;15.10;;;;;;;0.48;86.97;102314.03;5022758;28;20416;-24
2022/01/15 09:16:30;;;;;;;23.40;15.25;;;;;;;0.49;86.91;102306.34;5024519;28;20037;-24
2022/01/15 09:18:57;;;;;;;21.80;15.27;;;;;;;0.50;86.88;102315.91;5024872;28;20080;-25
2022/01/15 09:21:23;;;;;;;22.85;16.25;;;;;;;0.53;87.21;102316.91;5024448;28;20464;-24
2022/01/15 09:23:51;;;;;;;23.98;16.10;;;;;;;0.54;86.85;102317.00;5021426;28;20050;-24
2022/01/15 09:26:23;;;;;;;21.65;14.88;;;;;;;0.55;86.95;102303.22;5024891;28;20087;-25
2022/01/15 09:31:35;;;;;;;23.85;15.10;;;;;;;0.60;86.91;102322.53;5022840;28;20044;-22
2022/01/15 09:34:02;;;;;;;21.75;15.00;;;;;;;0.62;87.61;102325.25;5023631;28;20044;-24
2022/01/15 09:36:27;;;;;;;23.33;15.43;;;;;;;0.63;86.94;102322.72;5024909;28;20099;-25
2022/01/15 09:38:53;;;;;;;20.75;14.90;;;;;;;0.65;86.96;102330.63;5027537;28;20432;-23
2022/01/15 09:41:19;;;;;;;20.90;14.52;;;;;;;0.68;87.46;102319.50;5026399;28;20025;-24
2022/01/15 09:43:45;;;;;;;20.23;13.65;;;;;;;0.70;87.31;102323.09;5025001;28;20444;-24
2022/01/15 09:46:11;;;;;;;21.10;13.80;;;;;;;0.69;87.21;102306.63;5024152;28;20037;-24
2022/01/15 09:48:38;;;;;;;20.75;13.20;;;;;;;0.71;87.00;102309.31;5022845;28;20037;-25
2022/01/15 09:51:05;;;;;;;21.08;13.45;;;;;;;0.74;87.08;102306.88;5026492;28;20029;-24
2022/01/15 09:53:33;;;;;;;18.48;13.60;;;;;;;0.77;87.11;102309.66;5025045;28;20033;-24
2022/01/15 09:55:59;;;;;;;20.27;13.45;;;;;;;0.78;87.32;102301.06;5025624;28;20485;-24
2022/01/15 09:58:25;;;;;;;20.27;13.77;;;;;;;0.81;87.36;102305.53;5024329;28;20078;-24
2022/01/15 10:00:50;;;;;;;21.08;13.85;;;;;;;0.82;87.05;102305.63;5022455;28;20401;-24
2022/01/15 10:03:16;;;;;;;19.13;13.60;;;;;;;0.84;87.00;102304.00;5025720;28;20405;-25
2022/01/15 10:05:42;;;;;;;19.92;13.15;;;;;;;0.86;87.22;102306.69;5022642;28;20044;-27
2022/01/15 10:08:10;;;;;;;21.08;12.73;;;;;;;0.88;87.20;102297.28;5020743;28;20120;-25
2022/01/15 10:10:38;;;;;;;18.70;13.00;;;;;;;0.90;87.04;102306.03;5025277;28;20061;-24
2022/01/15 10:13:24;;;;;;;21.25;13.32;;;;;;;0.93;86.89;102308.81;5022481;28;20405;-22
2022/01/15 10:16:17;;;;;;;20.67;13.77;;;;;;;0.95;86.60;102293.31;5019287;28;20135;-24
2022/01/15 10:18:45;;;;;;;20.52;13.63;;;;;;;0.97;86.34;102296.91;5023623;28;20041;-24
2022/01/15 10:21:29;;;;;;;22.25;14.13;;;;;;;0.99;86.33;102301.38;5022889;28;20060;-24
2022/01/15 10:23:57;;;;;;;21.80;14.45;;;;;;;1.01;86.19;102302.34;5024212;28;20041;-24
2022/01/15 10:26:25;;;;;;;19.23;12.93;;;;;;;1.04;86.16;102296.47;5022544;28;20481;-24
2022/01/15 10:29:03;;;;;;;21.17;13.60;;;;;;;1.06;86.15;102297.41;5021907;28;20440;-24
2022/01/15 10:31:34;;;;;;;22.05;14.15;;;;;;;1.08;86.41;102298.41;5020533;28;20030;-25
2022/01/15 10:34:33;;;;;;;20.23;14.35;;;;;;;1.11;86.32;102301.19;5000168;28;20021;-24
2022/01/15 10:37:12;;;;;;;19.58;13.82;;;;;;;1.14;86.38;102296.16;5022501;28;20393;-24
2022/01/15 10:39:38;;;;;;;21.02;13.77;;;;;;;1.17;86.28;102299.75;5023860;28;20543;-24
2022/01/15 10:42:22;;;;;;;19.50;13.50;;;;;;;1.20;85.96;102299.91;5024736;28;20056;-24
2022/01/15 10:44:48;;;;;;;22.23;14.23;;;;;;;1.20;86.04;102289.53;5024716;28;20128;-25
2022/01/15 10:47:18;;;;;;;19.23;13.52;;;;;;;1.23;86.41;102284.50;5021396;28;20025;-24
2022/01/15 10:49:44;;;;;;;18.73;14.35;;;;;;;1.25;86.37;102285.47;5018159;28;20575;-24
2022/01/15 10:52:13;;;;;;;21.17;14.27;;;;;;;1.27;86.04;102295.13;5018751;28;20025;-24
2022/01/15 10:54:57;;;;;;;19.77;14.00;;;;;;;1.29;86.00;102292.63;5020831;28;20512;-24
2022/01/15 10:57:29;;;;;;;17.90;12.90;;;;;;;1.32;86.01;102289.28;5020064;28;20030;-24
2022/01/15 11:00:29;;;;;;;23.45;13.98;;;;;;;1.34;85.96;102280.78;5019483;28;20095;-24
2022/01/15 11:03:06;;;;;;;19.35;13.23;;;;;;;1.36;85.99;102276.53;5017431;28;20056;-24
2022/01/15 11:05:35;;;;;;;22.48;14.48;;;;;;;1.39;85.89;102275.81;5022138;28;20030;-24
2022/01/15 11:08:20;;;;;;;20.92;14.73;;;;;;;1.41;86.01;102275.09;5019651;28;20037;-24
2022/01/15 11:10:50;;;;;;;22.08;14.18;;;;;;;1.43;85.87;102276.91;5019148;28;20115;-24
2022/01/15 11:13:23;;;;;;;19.58;13.30;;;;;;;1.45;86.12;102270.97;5021519;28;20405;-24
2022/01/15 11:15:50;;;;;;;17.23;13.15;;;;;;;1.49;86.07;102269.41;5021140;28;20465;-24
2022/01/15 11:18:25;;;;;;;19.02;13.13;;;;;;;1.51;85.96;102267.78;5023439;28;20087;-23
2022/01/15 11:20:53;;;;;;;21.48;14.30;;;;;;;1.53;85.76;102258.34;5020908;28;20128;-24
2022/01/15 11:23:21;;;;;;;21.33;13.90;;;;;;;1.56;85.56;102262.84;5021795;28;20112;-24
2022/01/15 11:25:47;;;;;;;20.73;13.60;;;;;;;1.58;85.95;102248.22;5023909;28;20025;-24
2022/01/15 11:28:14;;;;;;;19.48;15.45;;;;;;;1.60;85.71;102252.66;5022393;28;20082;-24
2022/01/15 11:30:40;;;;;;;22.02;15.02;;;;;;;1.63;85.75;102247.63;5025261;28;20029;-24
2022/01/15 11:33:06;;;;;;;20.05;14.50;;;;;;;1.64;85.71;102244.22;5007146;28;20029;-24
2022/01/15 11:35:37;;;;;;;22.45;15.60;;;;;;;1.67;85.90;102246.97;5024278;28;20087;-24